Time;durP1;ratioP1;P1;durP2;ratioP2;P2;SDS_P1;SDS_P2;PMS_P1;PMS_P2;Temp;Humidity;BMP_temperature;BMP_pressure;BME280_temperature;BME280_humidity;BME280_pressure;Samples;Min_cycle;Max_cycle;Signal;HPM_P1;HPM_P2
2022/06/24 00:00:40;;;;;;;6.60;3.63;;;17.00;99.90;;;;;;5055419;28;20651;-62
2022/06/24 00:03:07;;;;;;;8.93;3.10;;;17.00;99.90;;;;;;5073469;28;20226;-62
2022/06/24 00:05:34;;;;;;;7.10;3.13;;;17.00;99.90;;;;;;5072492;28;20186;-62
2022/06/24 00:08:00;;;;;;;5.17;3.13;;;17.00;99.90;;;;;;5073342;28;20225;-62
2022/06/24 00:10:32;;;;;;;4.30;2.80;;;17.00;99.90;;;;;;5073010;28;20539;-63
2022/06/24 00:12:58;;;;;;;6.37;3.20;;;17.00;99.90;;;;;;5073328;28;20209;-63
2022/06/24 00:15:31;;;;;;;8.80;3.33;;;17.00;99.90;;;;;;5073409;28;20684;-61
2022/06/24 00:17:58;;;;;;;5.30;3.20;;;17.00;99.90;;;;;;5083074;28;20251;-61
2022/06/24 00:20:24;;;;;;;4.93;2.97;;;17.00;99.90;;;;;;5072977;28;20180;-61
2022/06/24 00:22:52;;;;;;;6.87;3.10;;;16.90;99.90;;;;;;5073249;28;20189;-62
2022/06/24 00:25:20;;;;;;;5.37;3.00;;;16.90;99.90;;;;;;5072813;28;20631;-62
2022/06/24 00:28:05;;;;;;;8.37;3.23;;;16.90;99.90;;;;;;5073146;28;20201;-62
2022/06/24 00:30:50;;;;;;;4.20;2.70;;;16.90;99.90;;;;;;5072896;28;20197;-62
2022/06/24 00:33:24;;;;;;;7.67;2.90;;;16.90;99.90;;;;;;5073081;28;20186;-62
2022/06/24 00:35:56;;;;;;;4.97;2.83;;;16.90;99.90;;;;;;5073222;28;20185;-63
2022/06/24 00:38:28;;;;;;;5.30;2.80;;;16.80;99.90;;;;;;5072344;28;20595;-62
2022/06/24 00:41:04;;;;;;;5.30;2.97;;;16.70;99.90;;;;;;5090984;28;20311;-63
2022/06/24 00:43:32;;;;;;;8.17;3.10;;;16.70;99.90;;;;;;5091144;28;20276;-63
2022/06/24 00:46:16;;;;;;;6.27;3.03;;;16.70;99.90;;;;;;5074786;28;20200;-62
2022/06/24 00:48:47;;;;;;;6.10;2.97;;;16.60;99.90;;;;;;5093164;28;20196;-62
2022/06/24 00:51:14;;;;;;;7.97;3.17;;;16.60;99.90;;;;;;5092757;28;20207;-62
2022/06/24 00:53:45;;;;;;;3.47;2.73;;;16.60;99.90;;;;;;5092725;28;20177;-62
2022/06/24 00:56:12;;;;;;;6.33;3.20;;;16.60;99.90;;;;;;5092580;28;20192;-63
2022/06/24 00:58:39;;;;;;;5.70;3.40;;;16.50;99.90;;;;;;5093058;28;20188;-62
2022/06/24 01:01:05;;;;;;;6.40;2.90;;;16.50;99.90;;;;;;5092965;28;20188;-62
2022/06/24 01:03:40;;;;;;;5.13;2.60;;;16.60;99.90;;;;;;5092162;28;20236;-63
2022/06/24 01:06:07;;;;;;;5.97;3.10;;;16.60;99.90;;;;;;5092404;28;20463;-62
2022/06/24 01:08:33;;;;;;;6.33;3.10;;;16.50;99.90;;;;;;5092835;28;20219;-62
2022/06/24 01:10:59;;;;;;;11.07;3.73;;;16.50;99.90;;;;;;5092304;28;20181;-61
2022/06/24 01:13:25;;;;;;;4.70;2.73;;;16.50;99.90;;;;;;5092690;28;20181;-62
2022/06/24 01:15:52;;;;;;;4.27;2.80;;;16.50;99.90;;;;;;5092488;28;20173;-62
2022/06/24 01:18:17;;;;;;;5.50;3.10;;;16.40;99.90;;;;;;5082378;28;20192;-62
2022/06/24 01:20:43;;;;;;;6.07;2.83;;;16.40;99.90;;;;;;5092429;28;20234;-62
2022/06/24 01:23:09;;;;;;;4.23;2.70;;;16.40;99.90;;;;;;5092175;28;20177;-63
2022/06/24 01:25:34;;;;;;;8.50;3.30;;;16.30;99.90;;;;;;5092608;28;20234;-62
2022/06/24 01:28:00;;;;;;;4.07;2.83;;;16.30;99.90;;;;;;5091979;28;20652;-62
2022/06/24 01:30:27;;;;;;;4.27;2.30;;;16.30;99.90;;;;;;5092123;28;20229;-61
2022/06/24 01:32:54;;;;;;;4.80;2.93;;;16.30;99.90;;;;;;5092054;28;20188;-62
2022/06/24 01:35:20;;;;;;;5.73;2.60;;;16.30;99.90;;;;;;5091759;28;20647;-61
2022/06/24 01:37:46;;;;;;;5.50;2.80;;;16.30;99.90;;;;;;5074078;28;20709;-61
2022/06/24 01:40:13;;;;;;;9.30;2.40;;;16.20;99.90;;;;;;5092136;28;20188;-62
2022/06/24 01:42:39;;;;;;;5.13;2.70;;;16.20;99.90;;;;;;5091915;28;20189;-62
2022/06/24 01:45:05;;;;;;;5.53;2.90;;;16.20;99.90;;;;;;5092014;28;20182;-61
2022/06/24 01:47:31;;;;;;;3.10;2.23;;;16.20;99.90;;;;;;5091741;28;20184;-62
2022/06/24 01:49:56;;;;;;;5.23;2.63;;;16.20;99.90;;;;;;5073638;28;20625;-62
2022/06/24 01:52:22;;;;;;;4.77;2.63;;;16.20;99.90;;;;;;5091845;28;20181;-62
2022/06/24 01:54:48;;;;;;;6.27;2.63;;;16.20;99.90;;;;;;5091886;28;20189;-62
2022/06/24 01:57:14;;;;;;;6.70;2.53;;;16.20;99.90;;;;;;5091481;28;20238;-61
2022/06/24 01:59:39;;;;;;;5.17;2.70;;;16.20;99.90;;;;;;5091891;28;20659;-62
2022/06/24 02:02:05;;;;;;;4.33;2.50;;;16.20;99.90;;;;;;5091636;28;20191;-62
2022/06/24 02:04:31;;;;;;;5.73;2.77;;;16.10;99.90;;;;;;5091767;28;20249;-61
2022/06/24 02:06:57;;;;;;;4.40;2.80;;;16.10;99.90;;;;;;5091750;28;20271;-61
2022/06/24 02:09:22;;;;;;;4.37;2.30;;;16.20;99.90;;;;;;5091697;28;20212;-62
2022/06/24 02:14:32;;;;;;;6.03;3.10;;;16.10;99.90;;;;;;5091744;28;20707;-62
2022/06/24 02:16:59;;;;;;;4.40;2.43;;;16.10;99.90;;;;;;5086360;28;20210;-63
2022/06/24 02:19:25;;;;;;;6.67;2.40;;;16.20;99.90;;;;;;5086914;28;20188;-63
2022/06/24 02:21:51;;;;;;;6.37;2.83;;;16.20;99.90;;;;;;5091726;28;20249;-63
2022/06/24 02:24:16;;;;;;;11.23;2.80;;;16.20;99.90;;;;;;5073091;28;20627;-63
2022/06/24 02:26:43;;;;;;;6.17;2.40;;;16.20;99.90;;;;;;5091549;28;20185;-61
2022/06/24 02:29:10;;;;;;;7.10;2.70;;;16.20;99.90;;;;;;5093535;28;20208;-62
2022/06/24 02:31:37;;;;;;;4.37;2.50;;;16.20;99.90;;;;;;5095045;28;20655;-61
2022/06/24 02:34:03;;;;;;;4.20;2.63;;;16.10;99.90;;;;;;5095815;28;20193;-61
2022/06/24 02:36:29;;;;;;;6.90;2.80;;;16.20;99.90;;;;;;5095387;28;20555;-61
2022/06/24 02:38:54;;;;;;;4.23;2.60;;;16.10;99.90;;;;;;5077437;28;20192;-63
2022/06/24 02:41:20;;;;;;;3.80;2.67;;;16.10;99.90;;;;;;5076985;28;20188;-62
2022/06/24 02:43:46;;;;;;;6.87;2.70;;;16.10;99.90;;;;;;5095236;28;20180;-62
2022/06/24 02:46:14;;;;;;;4.57;2.63;;;16.00;99.90;;;;;;5095102;28;20259;-62
2022/06/24 02:48:43;;;;;;;5.37;2.73;;;16.00;99.90;;;;;;5095283;28;20220;-62
2022/06/24 02:51:11;;;;;;;6.17;2.73;;;16.00;99.90;;;;;;5095092;28;20192;-62
2022/06/24 02:53:38;;;;;;;4.57;2.40;;;16.00;99.90;;;;;;5095063;28;20635;-62
2022/06/24 02:56:06;;;;;;;5.20;2.87;;;16.00;99.90;;;;;;5095406;28;20247;-61
2022/06/24 02:58:32;;;;;;;7.80;2.70;;;16.10;99.90;;;;;;5094386;28;20241;-62
2022/06/24 03:00:59;;;;;;;6.53;2.60;;;16.00;99.90;;;;;;5095131;28;20191;-61
2022/06/24 03:03:25;;;;;;;5.07;2.60;;;16.00;99.90;;;;;;5094403;28;20228;-61
2022/06/24 03:05:52;;;;;;;5.80;2.77;;;16.10;99.90;;;;;;5095103;28;20180;-62
2022/06/24 03:08:20;;;;;;;5.57;2.57;;;16.10;99.90;;;;;;5094422;28;20261;-62
2022/06/24 03:10:46;;;;;;;7.47;3.07;;;16.10;99.90;;;;;;5094685;28;20660;-62
2022/06/24 03:13:12;;;;;;;10.23;2.43;;;16.20;99.90;;;;;;5094563;28;20199;-62
2022/06/24 03:15:39;;;;;;;9.73;2.77;;;16.30;99.90;;;;;;5094426;28;20177;-62
2022/06/24 03:18:05;;;;;;;3.87;2.53;;;16.40;99.90;;;;;;5089821;28;20577;-62
2022/06/24 03:20:32;;;;;;;6.00;2.27;;;16.40;99.90;;;;;;5055972;28;20281;-62
2022/06/24 03:22:58;;;;;;;8.07;3.03;;;16.50;99.90;;;;;;5073907;28;20249;-61
2022/06/24 03:25:24;;;;;;;7.27;2.70;;;16.50;99.90;;;;;;5073750;28;20242;-61
2022/06/24 03:27:50;;;;;;;5.63;2.83;;;16.60;99.90;;;;;;5073536;28;20324;-61
2022/06/24 03:30:16;;;;;;;5.80;2.70;;;16.60;99.90;;;;;;5073281;28;20391;-62
2022/06/24 03:32:42;;;;;;;5.57;2.27;;;16.60;99.90;;;;;;5073600;28;20318;-61
2022/06/24 03:35:09;;;;;;;5.73;2.70;;;16.60;99.90;;;;;;5074444;28;20186;-62
2022/06/24 03:37:35;;;;;;;9.67;2.90;;;16.60;99.90;;;;;;5073325;28;20185;-62
2022/06/24 03:40:01;;;;;;;4.03;2.30;;;16.70;99.90;;;;;;5072388;28;20307;-61
2022/06/24 03:42:27;;;;;;;6.43;2.60;;;16.70;99.90;;;;;;5073319;28;20185;-63
2022/06/24 03:44:53;;;;;;;4.43;2.83;;;16.70;99.90;;;;;;5073735;28;20181;-63
2022/06/24 03:47:19;;;;;;;7.93;2.80;;;16.70;99.90;;;;;;5073341;28;20177;-63
2022/06/24 03:49:45;;;;;;;5.47;2.80;;;16.80;99.90;;;;;;5073577;28;20270;-61
2022/06/24 03:52:11;;;;;;;4.83;2.47;;;16.80;99.90;;;;;;5073245;28;20533;-61
2022/06/24 03:54:37;;;;;;;10.30;3.67;;;16.80;99.90;;;;;;5072741;28;20190;-64
2022/06/24 03:57:03;;;;;;;4.73;2.60;;;16.80;99.90;;;;;;5073532;28;20314;-61
2022/06/24 03:59:29;;;;;;;9.10;2.90;;;16.80;99.90;;;;;;5072905;28;20204;-61
2022/06/24 04:01:55;;;;;;;8.00;2.90;;;16.80;99.90;;;;;;5073310;28;20247;-62
2022/06/24 04:04:21;;;;;;;6.63;3.10;;;16.80;99.90;;;;;;5072713;28;20229;-62
2022/06/24 04:06:47;;;;;;;4.20;2.63;;;16.90;99.90;;;;;;5073475;28;20182;-62
2022/06/24 04:09:13;;;;;;;4.47;3.10;;;17.00;99.90;;;;;;5073262;28;20217;-62
2022/06/24 04:11:38;;;;;;;7.47;3.00;;;17.10;99.90;;;;;;5072993;28;20276;-62
2022/06/24 04:14:04;;;;;;;10.90;2.70;;;17.20;99.90;;;;;;5073732;28;20265;-61
2022/06/24 04:16:30;;;;;;;5.57;2.87;;;17.30;99.90;;;;;;5072819;28;20576;-62
2022/06/24 04:18:56;;;;;;;4.93;2.77;;;17.30;99.90;;;;;;5066663;28;20644;-62
2022/06/24 04:21:22;;;;;;;4.67;2.73;;;17.40;99.90;;;;;;5093164;28;20230;-61
2022/06/24 04:23:49;;;;;;;7.73;2.47;;;17.40;99.90;;;;;;5092973;28;20181;-62
2022/06/24 04:26:16;;;;;;;5.90;2.70;;;17.40;99.90;;;;;;5093044;28;20268;-62
2022/06/24 04:28:42;;;;;;;9.07;3.73;;;17.40;99.90;;;;;;5092668;28;20679;-62
2022/06/24 04:31:08;;;;;;;7.43;2.70;;;17.40;99.90;;;;;;5092742;28;20173;-62
2022/06/24 04:33:34;;;;;;;8.93;3.50;;;17.30;99.90;;;;;;5073672;28;20197;-62
2022/06/24 04:35:59;;;;;;;6.03;3.20;;;17.20;99.90;;;;;;5092439;28;20173;-62
2022/06/24 04:38:25;;;;;;;5.47;3.07;;;17.20;99.90;;;;;;5073920;28;20184;-62
2022/06/24 04:40:51;;;;;;;10.83;3.60;;;17.10;99.90;;;;;;5091915;28;20201;-62
2022/06/24 04:43:17;;;;;;;6.70;3.53;;;17.00;99.90;;;;;;5092386;28;20627;-62
2022/06/24 04:45:46;;;;;;;11.47;3.43;;;17.00;99.90;;;;;;5092357;28;20181;-62
2022/06/24 04:48:13;;;;;;;5.03;3.33;;;17.00;99.90;;;;;;5092420;28;20262;-62
2022/06/24 04:50:39;;;;;;;6.73;3.70;;;17.10;99.90;;;;;;5091672;28;20181;-63
2022/06/24 04:53:05;;;;;;;5.63;3.73;;;17.20;99.90;;;;;;5091725;28;20176;-64
2022/06/24 04:55:31;;;;;;;10.93;4.60;;;17.30;99.90;;;;;;5084179;28;20197;-58
2022/06/24 04:57:56;;;;;;;5.33;3.33;;;17.50;99.90;;;;;;5080965;28;20296;-64
2022/06/24 05:00:22;;;;;;;5.57;3.43;;;17.50;99.90;;;;;;5071131;28;20182;-64
2022/06/24 05:02:48;;;;;;;9.37;3.67;;;17.60;99.90;;;;;;5036656;28;20706;-64
2022/06/24 05:05:14;;;;;;;5.07;3.03;;;17.70;99.90;;;;;;5071097;28;20715;-65
2022/06/24 05:07:40;;;;;;;5.93;3.17;;;17.80;99.90;;;;;;5071262;28;20185;-64
2022/06/24 05:10:06;;;;;;;5.07;3.37;;;17.90;99.90;;;;;;5071480;28;20264;-62
2022/06/24 05:12:32;;;;;;;13.67;4.33;;;17.90;99.90;;;;;;5071566;28;20181;-64
2022/06/24 05:14:58;;;;;;;9.13;3.37;;;18.00;99.90;;;;;;5071133;28;20717;-63
2022/06/24 05:17:24;;;;;;;6.13;3.80;;;18.00;99.90;;;;;;5079933;28;20181;-64
2022/06/24 05:19:53;;;;;;;18.37;4.53;;;18.00;99.90;;;;;;5072213;28;20553;-66
2022/06/24 05:22:19;;;;;;;11.77;3.83;;;18.10;99.90;;;;;;5069531;28;20174;-66
2022/06/24 05:24:45;;;;;;;8.50;3.57;;;18.20;99.90;;;;;;5051131;28;20189;-68
2022/06/24 05:27:11;;;;;;;6.20;3.20;;;18.20;99.90;;;;;;5088908;28;20184;-72
2022/06/24 05:29:37;;;;;;;6.57;3.50;;;18.30;99.90;;;;;;5089117;28;20721;-66
2022/06/24 05:32:05;;;;;;;5.00;3.40;;;18.40;99.90;;;;;;5088741;28;20204;-65
2022/06/24 05:34:31;;;;;;;8.30;3.10;;;18.40;99.90;;;;;;5088636;28;20319;-64
2022/06/24 05:36:56;;;;;;;5.38;3.70;;;18.50;99.90;;;;;;5088904;28;20263;-62
2022/06/24 05:39:22;;;;;;;7.90;3.90;;;18.50;99.90;;;;;;5090651;28;20593;-62
2022/06/24 05:41:48;;;;;;;6.43;4.10;;;18.60;99.90;;;;;;5090169;28;20184;-62
2022/06/24 05:44:13;;;;;;;6.77;3.77;;;18.60;99.90;;;;;;5090402;28;20184;-62
2022/06/24 05:46:40;;;;;;;7.35;4.05;;;18.70;99.90;;;;;;5071541;28;20596;-62
2022/06/24 05:49:06;;;;;;;6.10;3.65;;;18.80;99.90;;;;;;5090232;28;20261;-63
2022/06/24 05:51:35;;;;;;;14.60;4.17;;;18.80;99.90;;;;;;5072154;28;20283;-63
2022/06/24 05:56:45;;;;;;;15.50;4.15;;;18.90;99.90;;;;;;5072852;28;20255;-63
2022/06/24 05:59:11;;;;;;;7.47;4.05;;;18.90;99.90;;;;;;5070081;28;20211;-62
2022/06/24 06:01:37;;;;;;;7.85;4.00;;;19.00;99.90;;;;;;5070031;28;20189;-64
2022/06/24 06:04:03;;;;;;;7.45;3.92;;;19.20;99.90;;;;;;5069364;28;20226;-62
2022/06/24 06:06:28;;;;;;;8.57;4.53;;;19.30;99.90;;;;;;5069753;28;20182;-61
2022/06/24 06:08:54;;;;;;;9.15;3.45;;;19.50;99.90;;;;;;5070386;28;20350;-61
2022/06/24 06:11:22;;;;;;;6.25;4.15;;;19.50;99.90;;;;;;5069848;28;20190;-62
2022/06/24 06:13:49;;;;;;;5.82;4.32;;;19.50;99.90;;;;;;5069905;28;20541;-65
2022/06/24 06:16:16;;;;;;;9.45;4.00;;;19.60;99.90;;;;;;5074838;28;20192;-63
2022/06/24 06:18:42;;;;;;;7.43;4.22;;;19.60;99.90;;;;;;5088988;28;20204;-62
2022/06/24 06:21:09;;;;;;;11.13;4.28;;;19.70;99.90;;;;;;5089309;28;20205;-64
2022/06/24 06:23:37;;;;;;;8.65;4.03;;;19.80;99.90;;;;;;5089346;28;20193;-62
2022/06/24 06:26:04;;;;;;;7.38;3.47;;;19.90;99.90;;;;;;5080937;28;20192;-62
2022/06/24 06:28:31;;;;;;;16.98;5.10;;;20.00;99.90;;;;;;5089019;28;20242;-62
2022/06/24 06:30:58;;;;;;;8.25;3.92;;;20.10;99.90;;;;;;5070277;28;20525;-61
2022/06/24 06:33:24;;;;;;;6.88;3.03;;;20.20;99.90;;;;;;5089485;28;20189;-62
2022/06/24 06:35:49;;;;;;;9.45;3.45;;;20.30;99.90;;;;;;5088165;28;20187;-62
2022/06/24 06:38:15;;;;;;;7.68;3.00;;;20.50;99.90;;;;;;5071646;28;20574;-63
2022/06/24 06:40:41;;;;;;;8.38;3.40;;;20.50;99.90;;;;;;5072004;28;20189;-63
2022/06/24 06:43:09;;;;;;;5.45;3.63;;;20.50;99.90;;;;;;5078720;28;20185;-63
2022/06/24 06:45:36;;;;;;;6.88;2.88;;;20.50;99.90;;;;;;5088571;28;20216;-65
2022/06/24 06:48:02;;;;;;;6.20;2.83;;;20.60;99.90;;;;;;5088898;28;20241;-63
2022/06/24 06:50:29;;;;;;;6.63;2.85;;;20.70;99.90;;;;;;5070357;28;20189;-65
2022/06/24 06:52:55;;;;;;;5.60;3.00;;;20.70;99.90;;;;;;5089750;28;20189;-64
2022/06/24 06:55:21;;;;;;;8.52;3.67;;;20.70;99.90;;;;;;5089199;28;20194;-63
2022/06/24 06:57:46;;;;;;;7.05;3.10;;;20.80;99.90;;;;;;5088183;28;20503;-64
2022/06/24 07:00:13;;;;;;;11.52;3.42;;;20.80;99.90;;;;;;5070590;28;20189;-63
2022/06/24 07:02:40;;;;;;;6.03;3.13;;;20.80;99.90;;;;;;5070220;28;20588;-64
2022/06/24 07:05:06;;;;;;;7.15;3.10;;;21.00;99.90;;;;;;5071081;28;20593;-61
2022/06/24 07:07:32;;;;;;;5.47;3.22;;;21.10;99.90;;;;;;5089037;28;20602;-63
2022/06/24 07:09:58;;;;;;;8.57;3.00;;;21.10;99.90;;;;;;5069338;28;20210;-63
2022/06/24 07:12:24;;;;;;;5.07;2.58;;;21.20;99.90;;;;;;5070041;28;20186;-64
2022/06/24 07:14:50;;;;;;;8.50;3.30;;;21.30;99.90;;;;;;5070949;28;20189;-65
2022/06/24 07:17:17;;;;;;;4.53;2.92;;;21.50;99.90;;;;;;5081048;28;20177;-65
2022/06/24 07:19:44;;;;;;;6.50;3.20;;;21.50;99.90;;;;;;5074786;28;20284;-62
2022/06/24 07:22:10;;;;;;;8.02;3.17;;;21.60;99.90;;;;;;5073191;28;20178;-65
2022/06/24 07:24:36;;;;;;;9.35;3.53;;;21.70;99.90;;;;;;5073218;28;20188;-63
2022/06/24 07:27:03;;;;;;;8.45;3.00;;;21.70;99.30;;;;;;5092523;28;20585;-63
2022/06/24 07:29:33;;;;;;;6.55;2.97;;;21.70;98.70;;;;;;5093074;28;20211;-64
2022/06/24 07:31:59;;;;;;;8.40;2.92;;;21.90;98.50;;;;;;5093494;28;20181;-63
2022/06/24 07:34:26;;;;;;;9.75;2.85;;;22.40;97.20;;;;;;5092095;28;20181;-64
2022/06/24 07:36:55;;;;;;;6.93;3.45;;;22.80;96.40;;;;;;5092617;28;20269;-62
2022/06/24 07:39:20;;;;;;;6.85;3.83;;;23.00;96.00;;;;;;5092707;28;20667;-65
2022/06/24 07:41:46;;;;;;;7.20;3.45;;;23.10;95.60;;;;;;5092473;28;20177;-62
2022/06/24 07:44:12;;;;;;;7.00;3.75;;;23.20;95.20;;;;;;5092845;28;20714;-65
2022/06/24 07:46:37;;;;;;;7.50;3.28;;;23.10;94.70;;;;;;5093019;28;20181;-62
2022/06/24 07:49:03;;;;;;;9.35;3.67;;;23.00;94.00;;;;;;5092537;28;20274;-64
2022/06/24 07:51:29;;;;;;;4.28;2.80;;;23.00;94.30;;;;;;5092618;28;20724;-62
2022/06/24 07:53:54;;;;;;;4.72;2.40;;;23.10;93.50;;;;;;5074098;28;20230;-62
2022/06/24 07:59:05;;;;;;;5.13;3.00;;;23.50;93.50;;;;;;5092859;28;20670;-64
2022/06/24 08:01:31;;;;;;;7.28;3.72;;;23.60;93.80;;;;;;5092728;28;20263;-65
2022/06/24 08:03:58;;;;;;;7.30;2.88;;;23.60;93.40;;;;;;5092153;28;20337;-64
2022/06/24 08:06:24;;;;;;;9.48;3.50;;;23.60;93.30;;;;;;5091883;28;20177;-63
2022/06/24 08:08:50;;;;;;;12.25;4.03;;;23.60;92.50;;;;;;5092145;28;20205;-64
2022/06/24 08:11:16;;;;;;;6.15;2.95;;;23.60;92.40;;;;;;5074030;28;20514;-63
2022/06/24 08:13:42;;;;;;;6.75;2.63;;;24.00;91.90;;;;;;5091873;28;20177;-66
2022/06/24 08:16:07;;;;;;;6.97;3.85;;;24.10;91.20;;;;;;5091044;28;20187;-65
2022/06/24 08:18:33;;;;;;;5.38;3.05;;;24.20;90.90;;;;;;5073128;28;20197;-64
2022/06/24 08:20:59;;;;;;;10.27;4.65;;;24.40;90.90;;;;;;5071865;28;20205;-63
2022/06/24 08:23:25;;;;;;;7.72;3.45;;;24.90;90.10;;;;;;5071250;28;20192;-64
2022/06/24 08:25:50;;;;;;;14.68;3.78;;;25.10;88.40;;;;;;5052202;28;20633;-64
2022/06/24 08:28:16;;;;;;;10.25;3.17;;;25.30;87.90;;;;;;5071159;28;20209;-64
2022/06/24 08:30:42;;;;;;;4.53;2.70;;;25.30;85.80;;;;;;5071276;28;20181;-64
2022/06/24 08:33:08;;;;;;;8.32;3.20;;;25.20;86.90;;;;;;5071413;28;20181;-64
2022/06/24 08:35:34;;;;;;;8.10;2.95;;;24.70;88.10;;;;;;5070457;28;20561;-62
2022/06/24 08:38:00;;;;;;;7.68;3.78;;;24.50;87.50;;;;;;5070784;28;20185;-65
2022/06/24 08:40:28;;;;;;;9.18;3.40;;;24.10;88.30;;;;;;5052456;28;20193;-64
2022/06/24 08:42:56;;;;;;;5.63;2.58;;;24.10;89.10;;;;;;5070456;28;20177;-64
2022/06/24 08:45:23;;;;;;;8.57;2.95;;;24.00;88.10;;;;;;5052853;28;20260;-64
2022/06/24 08:47:50;;;;;;;7.38;3.00;;;24.10;88.90;;;;;;5070201;28;20189;-64
2022/06/24 08:50:17;;;;;;;8.45;4.65;;;23.90;87.20;;;;;;5070923;28;20231;-63
2022/06/24 08:52:50;;;;;;;6.47;3.30;;;23.80;88.80;;;;;;5052370;28;20173;-65
2022/06/24 08:55:18;;;;;;;7.03;4.05;;;23.90;89.60;;;;;;5070149;28;20178;-64
2022/06/24 08:57:48;;;;;;;3.78;2.40;;;24.00;88.30;;;;;;5070399;28;20170;-65
2022/06/24 09:00:14;;;;;;;9.88;3.22;;;24.10;88.10;;;;;;5071017;28;20245;-64
2022/06/24 09:02:41;;;;;;;6.28;2.83;;;24.20;87.90;;;;;;5070039;28;20268;-65
2022/06/24 09:05:12;;;;;;;4.60;2.40;;;24.40;86.00;;;;;;5053726;28;20530;-64
2022/06/24 09:07:38;;;;;;;6.68;2.72;;;24.60;85.40;;;;;;5091007;28;20212;-65
2022/06/24 09:10:07;;;;;;;3.10;2.55;;;24.80;84.80;;;;;;5090699;28;20209;-65
2022/06/24 09:12:50;;;;;;;7.60;2.80;;;25.10;83.20;;;;;;5090718;28;20357;-64
2022/06/24 09:15:16;;;;;;;9.75;3.55;;;25.10;83.50;;;;;;5090791;28;20185;-64
2022/06/24 09:17:43;;;;;;;8.60;3.70;;;25.00;83.60;;;;;;5078490;28;20188;-64
2022/06/24 09:20:13;;;;;;;6.60;3.65;;;25.10;83.10;;;;;;5070661;28;20197;-64
2022/06/24 09:22:40;;;;;;;8.98;3.50;;;25.10;82.30;;;;;;5069396;28;20212;-64
2022/06/24 09:25:07;;;;;;;7.40;3.28;;;25.20;81.60;;;;;;5073732;28;20184;-65
2022/06/24 09:27:34;;;;;;;10.48;3.17;;;25.00;81.40;;;;;;5089940;28;20204;-64
2022/06/24 09:30:00;;;;;;;8.95;3.75;;;24.80;81.50;;;;;;5089773;28;20320;-64
2022/06/24 09:32:25;;;;;;;6.10;2.80;;;24.80;80.60;;;;;;5089800;28;20659;-64
2022/06/24 09:35:18;;;;;;;4.10;2.40;;;24.60;81.10;;;;;;5089292;28;20180;-63
2022/06/24 09:37:46;;;;;;;5.63;2.53;;;24.70;80.50;;;;;;5085446;28;20185;-63
2022/06/24 09:40:22;;;;;;;7.63;2.83;;;24.70;80.50;;;;;;5090102;28;20189;-63
2022/06/24 09:43:06;;;;;;;5.70;2.58;;;24.90;80.60;;;;;;5089756;28;20204;-65
2022/06/24 09:45:53;;;;;;;6.35;2.80;;;24.90;79.80;;;;;;5090124;28;20596;-63
2022/06/24 09:48:33;;;;;;;4.13;2.80;;;25.20;79.90;;;;;;5055091;28;20249;-61
2022/06/24 09:51:05;;;;;;;5.78;3.35;;;25.40;78.40;;;;;;5089951;28;20234;-65
2022/06/24 09:53:36;;;;;;;7.35;3.50;;;25.40;77.60;;;;;;5089607;28;20242;-63
2022/06/24 09:56:04;;;;;;;8.13;4.00;;;25.40;77.30;;;;;;5089589;28;20204;-64
2022/06/24 09:58:30;;;;;;;4.13;2.88;;;25.70;77.00;;;;;;5089643;28;20199;-68
2022/06/24 10:00:56;;;;;;;4.55;2.95;;;25.90;75.90;;;;;;5089662;28;20275;-63
2022/06/24 10:03:22;;;;;;;5.15;2.55;;;25.90;75.10;;;;;;5089751;28;20312;-64
2022/06/24 10:05:49;;;;;;;7.90;2.78;;;25.40;75.80;;;;;;5071318;28;20211;-64
2022/06/24 10:08:24;;;;;;;9.32;3.38;;;25.20;76.60;;;;;;5089798;28;20196;-64
2022/06/24 10:10:53;;;;;;;8.95;3.75;;;25.10;76.20;;;;;;5089743;28;20192;-65
2022/06/24 10:13:22;;;;;;;13.07;3.45;;;25.20;76.70;;;;;;5090178;28;20725;-64
2022/06/24 10:15:48;;;;;;;8.55;3.65;;;25.50;75.80;;;;;;5090127;28;20169;-63
2022/06/24 10:18:15;;;;;;;5.55;2.97;;;25.70;75.60;;;;;;5079988;28;20193;-63
2022/06/24 10:20:46;;;;;;;4.95;3.05;;;25.80;73.80;;;;;;5090027;28;20188;-63
2022/06/24 10:23:43;;;;;;;11.45;3.53;;;25.90;74.30;;;;;;5089294;28;20181;-65
2022/06/24 10:26:21;;;;;;;8.27;3.83;;;25.90;75.40;;;;;;5070090;28;20208;-64
2022/06/24 10:29:07;;;;;;;10.18;3.75;;;25.60;75.70;;;;;;5069394;28;20216;-63
2022/06/24 10:31:42;;;;;;;11.38;3.70;;;25.30;76.40;;;;;;5052269;28;20209;-63
2022/06/24 10:34:32;;;;;;;6.75;3.72;;;25.10;76.40;;;;;;5070190;28;20215;-64
2022/06/24 10:37:05;;;;;;;7.53;3.17;;;24.80;78.00;;;;;;5069871;28;20174;-63
2022/06/24 10:40:04;;;;;;;9.40;3.65;;;24.60;77.60;;;;;;5069999;28;20182;-63
2022/06/24 10:42:30;;;;;;;13.05;3.90;;;24.60;77.70;;;;;;5048204;28;20304;-65
2022/06/24 10:45:04;;;;;;;11.88;3.65;;;24.60;78.00;;;;;;5069702;28;20308;-63
2022/06/24 10:47:37;;;;;;;7.82;3.65;;;24.80;77.10;;;;;;5069477;28;20265;-66
2022/06/24 10:50:11;;;;;;;14.65;3.72;;;25.30;76.60;;;;;;5071283;28;20221;-63
2022/06/24 10:52:39;;;;;;;7.63;3.13;;;25.60;75.90;;;;;;5073215;28;20196;-62
2022/06/24 10:55:17;;;;;;;9.15;3.40;;;25.80;74.90;;;;;;5073219;28;20177;-63
2022/06/24 10:57:51;;;;;;;9.85;3.08;;;26.10;74.60;;;;;;5073799;28;20617;-66
2022/06/24 11:00:21;;;;;;;15.52;4.25;;;26.40;74.60;;;;;;5073405;28;20642;-63
2022/06/24 11:03:04;;;;;;;7.35;3.40;;;26.50;74.70;;;;;;5072342;28;20325;-64
2022/06/24 11:05:32;;;;;;;12.43;3.53;;;26.30;74.30;;;;;;5072691;28;20493;-69
2022/06/24 11:07:59;;;;;;;6.75;3.40;;;26.00;75.30;;;;;;5072542;28;20236;-64
2022/06/24 11:10:30;;;;;;;6.10;3.35;;;25.70;76.10;;;;;;5073083;28;20197;-63
2022/06/24 11:12:58;;;;;;;10.27;3.80;;;25.70;75.90;;;;;;5073464;28;20224;-64
2022/06/24 11:15:36;;;;;;;2.50;1.65;;;25.50;77.60;;;;;;5072446;28;20396;-64
2022/06/24 11:18:10;;;;;;;2.28;1.42;;;25.20;77.20;;;;;;5087585;28;20183;-64
2022/06/24 11:20:42;;;;;;;6.95;3.22;;;25.20;77.50;;;;;;5093218;28;20572;-64
2022/06/24 11:23:12;;;;;;;20.77;3.58;;;25.30;78.00;;;;;;5093271;28;20180;-62
2022/06/24 11:25:40;;;;;;;8.57;2.83;;;25.70;76.90;;;;;;5092856;28;20272;-61
2022/06/24 11:28:29;;;;;;;5.03;1.52;;;26.00;75.70;;;;;;5074870;28;20195;-63
2022/06/24 11:30:56;;;;;;;3.25;2.45;;;25.80;75.90;;;;;;5093477;28;20177;-64
2022/06/24 11:33:23;;;;;;;5.78;2.80;;;25.50;76.60;;;;;;5093784;28;20212;-62
2022/06/24 11:35:49;;;;;;;0.50;0.40;;;26.30;77.10;;;;;;5093008;28;20303;-65
2022/06/24 11:38:19;;;;;;;1.08;0.55;;;26.60;74.90;;;;;;5092755;28;20230;-63
2022/06/24 11:40:45;;;;;;;5.28;2.40;;;26.80;74.80;;;;;;5092742;28;20173;-64
2022/06/24 11:43:13;;;;;;;3.92;1.80;;;27.00;73.80;;;;;;5093267;28;20175;-64
2022/06/24 11:45:43;;;;;;;20.08;0.90;;;27.30;74.00;;;;;;5074785;28;20189;-63
2022/06/24 11:48:11;;;;;;;6.03;1.40;;;27.30;72.50;;;;;;5093075;28;20185;-63
2022/06/24 11:50:38;;;;;;;3.70;2.80;;;26.80;73.20;;;;;;5092711;28;20181;-64
2022/06/24 11:53:06;;;;;;;4.10;0.85;;;27.20;73.40;;;;;;5092170;28;20189;-63
2022/06/24 11:55:39;;;;;;;0.50;0.32;;;27.30;70.90;;;;;;5066421;28;20186;-62
2022/06/24 11:58:07;;;;;;;1.35;1.10;;;27.30;70.60;;;;;;5072253;28;20193;-64
2022/06/24 12:00:35;;;;;;;0.85;0.65;;;27.70;69.10;;;;;;5071256;28;20877;-62
2022/06/24 12:03:07;;;;;;;0.15;0.15;;;27.60;69.20;;;;;;5053460;28;20260;-63
2022/06/24 12:05:33;;;;;;;0.20;0.20;;;28.40;68.60;;;;;;5072398;28;20174;-62
2022/06/24 12:08:00;;;;;;;2.95;1.23;;;28.80;68.00;;;;;;5071908;28;20189;-63
2022/06/24 12:10:27;;;;;;;0.10;0.10;;;28.40;67.70;;;;;;5072184;28;20224;-62
2022/06/24 12:13:05;;;;;;;0.00;0.00;;;27.80;68.20;;;;;;5072153;28;20254;-62
2022/06/24 12:15:31;;;;;;;0.40;0.30;;;28.30;68.60;;;;;;5072244;28;20165;-62
2022/06/24 12:17:57;;;;;;;0.10;0.10;;;30.80;63.70;;;;;;5081962;28;20544;-64
2022/06/24 12:20:28;;;;;;;0.22;0.22;;;32.10;60.40;;;;;;5071956;28;20626;-64
2022/06/24 12:23:12;;;;;;;0.60;0.43;;;33.90;55.30;;;;;;5071666;28;20695;-63
2022/06/24 12:25:40;;;;;;;0.20;0.20;;;35.40;50.30;;;;;;5071223;28;20193;-61
2022/06/24 12:28:32;;;;;;;2.45;0.95;;;35.60;49.40;;;;;;5072501;28;20209;-64
2022/06/24 12:31:09;;;;;;;1.00;0.73;;;35.10;49.30;;;;;;5067609;28;20655;-63
2022/06/24 12:33:48;;;;;;;0.85;0.65;;;36.20;48.60;;;;;;5071200;28;20185;-62
2022/06/24 12:36:16;;;;;;;5.07;1.90;;;34.80;50.20;;;;;;5071815;28;20204;-63
2022/06/24 12:39:03;;;;;;;2.30;0.85;;;34.20;50.20;;;;;;5071449;28;20523;-65
2022/06/24 12:41:29;;;;;;;3.03;0.65;;;33.60;51.00;;;;;;5071486;28;20612;-65
2022/06/24 12:43:59;;;;;;;1.67;1.25;;;34.00;50.50;;;;;;5071372;28;20174;-62
2022/06/24 12:46:27;;;;;;;1.65;1.52;;;34.10;50.50;;;;;;5071534;28;20193;-63
2022/06/24 12:51:57;;;;;;;6.25;0.60;;;32.60;51.40;;;;;;4989574;28;20660;-64
2022/06/24 12:54:23;;;;;;;0.40;0.40;;;34.20;48.70;;;;;;4989847;28;20184;-65
2022/06/24 12:56:49;;;;;;;0.70;0.45;;;34.70;48.10;;;;;;5044200;28;20201;-64
2022/06/24 12:59:16;;;;;;;0.30;0.30;;;35.40;47.50;;;;;;5091613;28;20228;-62
2022/06/24 13:01:45;;;;;;;1.88;0.45;;;35.30;46.90;;;;;;5091497;28;20238;-64